sensor_id;sensor_type;location;lat;lon;timestamp;temperature;humidity
2465;DHT22;1244;54.326;10.074;2023-04-12T00:02:06;4.10;99.90
2465;DHT22;1244;54.326;10.074;2023-04-12T00:04:33;4.10;99.90
2465;DHT22;1244;54.326;10.074;2023-04-12T00:07:00;4.10;99.90
2465;DHT22;1244;54.326;10.074;2023-04-12T00:09:27;4.10;99.90
2465;DHT22;1244;54.326;10.074;2023-04-12T00:11:56;4.20;99.90
2465;DHT22;1244;54.326;10.074;2023-04-12T00:14:23;4.00;99.90
2465;DHT22;1244;54.326;10.074;2023-04-12T00:16:49;4.10;99.90
2465;DHT22;1244;54.326;10.074;2023-04-12T00:19:14;4.00;99.90
2465;DHT22;1244;54.326;10.074;2023-04-12T00:21:42;4.00;99.90
2465;DHT22;1244;54.326;10.074;2023-04-12T00:24:07;4.00;99.90
2465;DHT22;1244;54.326;10.074;2023-04-12T00:26:33;4.00;99.90
2465;DHT22;1244;54.326;10.074;2023-04-12T00:28:58;4.00;99.90
2465;DHT22;1244;54.326;10.074;2023-04-12T00:31:24;4.00;99.90
2465;DHT22;1244;54.326;10.074;2023-04-12T00:33:49;3.90;99.90
2465;DHT22;1244;54.326;10.074;2023-04-12T00:36:15;3.90;99.90
2465;DHT22;1244;54.326;10.074;2023-04-12T00:38:41;4.00;99.90
2465;DHT22;1244;54.326;10.074;2023-04-12T00:41:07;3.90;99.90
2465;DHT22;1244;54.326;10.074;2023-04-12T00:43:33;3.80;99.90
2465;DHT22;1244;54.326;10.074;2023-04-12T00:45:58;3.90;99.90
2465;DHT22;1244;54.326;10.074;2023-04-12T00:48:25;3.90;99.90
2465;DHT22;1244;54.326;10.074;2023-04-12T00:50:52;3.90;99.90
2465;DHT22;1244;54.326;10.074;2023-04-12T00:53:20;3.90;99.90
2465;DHT22;1244;54.326;10.074;2023-04-12T00:55:48;3.80;99.90
2465;DHT22;1244;54.326;10.074;2023-04-12T00:58:15;3.90;99.90
2465;DHT22;1244;54.326;10.074;2023-04-12T01:00:42;3.80;99.90
2465;DHT22;1244;54.326;10.074;2023-04-12T01:03:17;3.70;99.90
2465;DHT22;1244;54.326;10.074;2023-04-12T01:11:39;3.80;99.90
2465;DHT22;1244;54.326;10.074;2023-04-12T01:14:12;3.70;99.90
2465;DHT22;1244;54.326;10.074;2023-04-12T01:27:47;3.60;99.90
2465;DHT22;1244;54.326;10.074;2023-04-12T01:30:16;3.60;99.90
2465;DHT22;1244;54.326;10.074;2023-04-12T01:32:45;3.60;99.90
2465;DHT22;1244;54.326;10.074;2023-04-12T01:35:12;3.60;99.90
2465;DHT22;1244;54.326;10.074;2023-04-12T01:37:40;3.60;99.90
2465;DHT22;1244;54.326;10.074;2023-04-12T01:40:06;3.60;99.90
2465;DHT22;1244;54.326;10.074;2023-04-12T01:42:33;3.60;99.90
2465;DHT22;1244;54.326;10.074;2023-04-12T01:44:59;3.60;99.90
2465;DHT22;1244;54.326;10.074;2023-04-12T01:47:25;3.60;99.90
2465;DHT22;1244;54.326;10.074;2023-04-12T01:53:18;3.60;99.90
2465;DHT22;1244;54.326;10.074;2023-04-12T01:55:46;3.60;99.90
2465;DHT22;1244;54.326;10.074;2023-04-12T01:58:20;3.60;99.90
2465;DHT22;1244;54.326;10.074;2023-04-12T02:00:47;3.70;99.90
2465;DHT22;1244;54.326;10.074;2023-04-12T02:03:14;3.70;99.90
2465;DHT22;1244;54.326;10.074;2023-04-12T02:05:40;3.70;99.90
2465;DHT22;1244;54.326;10.074;2023-04-12T02:08:05;3.70;99.90
2465;DHT22;1244;54.326;10.074;2023-04-12T02:10:32;3.70;99.90
2465;DHT22;1244;54.326;10.074;2023-04-12T02:12:58;3.70;99.90
2465;DHT22;1244;54.326;10.074;2023-04-12T02:15:25;3.70;99.90
2465;DHT22;1244;54.326;10.074;2023-04-12T02:17:51;3.70;99.90
2465;DHT22;1244;54.326;10.074;2023-04-12T02:20:19;3.70;99.90
2465;DHT22;1244;54.326;10.074;2023-04-12T02:22:45;3.70;99.90
2465;DHT22;1244;54.326;10.074;2023-04-12T02:25:10;3.70;99.90
2465;DHT22;1244;54.326;10.074;2023-04-12T02:27:36;3.70;99.90
2465;DHT22;1244;54.326;10.074;2023-04-12T02:30:01;3.80;99.90
2465;DHT22;1244;54.326;10.074;2023-04-12T02:32:28;3.80;99.90
2465;DHT22;1244;54.326;10.074;2023-04-12T02:34:55;3.80;99.90
2465;DHT22;1244;54.326;10.074;2023-04-12T02:37:24;3.70;99.90
2465;DHT22;1244;54.326;10.074;2023-04-12T02:39:52;3.70;99.90
2465;DHT22;1244;54.326;10.074;2023-04-12T02:42:21;3.80;99.90
2465;DHT22;1244;54.326;10.074;2023-04-12T02:44:47;3.80;99.90
2465;DHT22;1244;54.326;10.074;2023-04-12T02:47:12;3.80;99.90
2465;DHT22;1244;54.326;10.074;2023-04-12T02:49:38;3.80;99.90
2465;DHT22;1244;54.326;10.074;2023-04-12T02:52:04;3.80;99.90
2465;DHT22;1244;54.326;10.074;2023-04-12T02:54:30;3.80;99.90
2465;DHT22;1244;54.326;10.074;2023-04-12T02:56:55;3.80;99.90
2465;DHT22;1244;54.326;10.074;2023-04-12T02:59:21;3.80;99.90
2465;DHT22;1244;54.326;10.074;2023-04-12T03:01:47;3.80;99.90
2465;DHT22;1244;54.326;10.074;2023-04-12T03:04:14;3.90;99.90
2465;DHT22;1244;54.326;10.074;2023-04-12T03:06:40;3.90;99.90
2465;DHT22;1244;54.326;10.074;2023-04-12T03:09:17;3.90;99.90
2465;DHT22;1244;54.326;10.074;2023-04-12T03:11:42;3.90;99.90
2465;DHT22;1244;54.326;10.074;2023-04-12T03:14:08;3.90;99.90
2465;DHT22;1244;54.326;10.074;2023-04-12T03:16:33;3.90;99.90
2465;DHT22;1244;54.326;10.074;2023-04-12T03:18:59;3.80;99.90
2465;DHT22;1244;54.326;10.074;2023-04-12T03:21:25;3.90;99.90
2465;DHT22;1244;54.326;10.074;2023-04-12T03:23:52;3.80;99.90
2465;DHT22;1244;54.326;10.074;2023-04-12T03:26:18;3.80;99.90
2465;DHT22;1244;54.326;10.074;2023-04-12T03:28:45;3.80;99.90
2465;DHT22;1244;54.326;10.074;2023-04-12T03:31:10;3.80;99.90
2465;DHT22;1244;54.326;10.074;2023-04-12T03:33:37;3.80;99.90
2465;DHT22;1244;54.326;10.074;2023-04-12T03:36:03;3.90;99.90
2465;DHT22;1244;54.326;10.074;2023-04-12T03:38:29;3.90;99.90
2465;DHT22;1244;54.326;10.074;2023-04-12T03:40:54;3.80;99.90
2465;DHT22;1244;54.326;10.074;2023-04-12T03:43:20;3.90;99.90
2465;DHT22;1244;54.326;10.074;2023-04-12T03:45:46;3.90;99.90
2465;DHT22;1244;54.326;10.074;2023-04-12T03:48:12;3.90;99.90
2465;DHT22;1244;54.326;10.074;2023-04-12T03:50:39;3.90;99.90
2465;DHT22;1244;54.326;10.074;2023-04-12T03:53:10;4.00;99.90
2465;DHT22;1244;54.326;10.074;2023-04-12T03:55:36;4.00;99.90
2465;DHT22;1244;54.326;10.074;2023-04-12T03:58:05;4.00;99.90
2465;DHT22;1244;54.326;10.074;2023-04-12T04:00:30;4.00;99.90
2465;DHT22;1244;54.326;10.074;2023-04-12T04:02:57;4.10;99.90
2465;DHT22;1244;54.326;10.074;2023-04-12T04:05:28;4.10;99.90
2465;DHT22;1244;54.326;10.074;2023-04-12T04:07:54;4.10;99.90
2465;DHT22;1244;54.326;10.074;2023-04-12T04:10:20;4.10;99.90
2465;DHT22;1244;54.326;10.074;2023-04-12T04:12:46;4.10;99.90
2465;DHT22;1244;54.326;10.074;2023-04-12T04:15:13;4.20;99.90
2465;DHT22;1244;54.326;10.074;2023-04-12T04:17:39;4.20;99.90
2465;DHT22;1244;54.326;10.074;2023-04-12T04:20:05;4.20;99.90
2465;DHT22;1244;54.326;10.074;2023-04-12T04:22:32;4.20;99.90
2465;DHT22;1244;54.326;10.074;2023-04-12T04:24:58;4.20;99.90
2465;DHT22;1244;54.326;10.074;2023-04-12T04:27:23;4.20;99.90
2465;DHT22;1244;54.326;10.074;2023-04-12T04:29:51;4.20;99.90
2465;DHT22;1244;54.326;10.074;2023-04-12T04:32:16;4.20;99.90
2465;DHT22;1244;54.326;10.074;2023-04-12T04:34:42;4.20;99.90
2465;DHT22;1244;54.326;10.074;2023-04-12T04:37:07;4.10;99.90
2465;DHT22;1244;54.326;10.074;2023-04-12T04:39:33;4.10;99.90
2465;DHT22;1244;54.326;10.074;2023-04-12T04:41:59;4.20;99.90
2465;DHT22;1244;54.326;10.074;2023-04-12T04:44:24;4.20;99.90
2465;DHT22;1244;54.326;10.074;2023-04-12T04:46:50;4.20;99.90
2465;DHT22;1244;54.326;10.074;2023-04-12T04:49:16;4.20;99.90
2465;DHT22;1244;54.326;10.074;2023-04-12T04:51:41;4.20;99.90
2465;DHT22;1244;54.326;10.074;2023-04-12T04:54:07;4.30;99.90
2465;DHT22;1244;54.326;10.074;2023-04-12T04:56:32;4.30;99.90
2465;DHT22;1244;54.326;10.074;2023-04-12T04:58:58;4.40;99.90
2465;DHT22;1244;54.326;10.074;2023-04-12T05:01:23;4.40;99.90
2465;DHT22;1244;54.326;10.074;2023-04-12T05:03:52;4.40;99.90
2465;DHT22;1244;54.326;10.074;2023-04-12T05:06:19;4.40;99.90
2465;DHT22;1244;54.326;10.074;2023-04-12T05:08:45;4.40;99.90
2465;DHT22;1244;54.326;10.074;2023-04-12T05:11:10;4.50;99.90
2465;DHT22;1244;54.326;10.074;2023-04-12T05:13:36;4.50;99.90
2465;DHT22;1244;54.326;10.074;2023-04-12T05:16:06;4.50;99.90
2465;DHT22;1244;54.326;10.074;2023-04-12T05:18:32;4.50;99.90
2465;DHT22;1244;54.326;10.074;2023-04-12T05:21:01;4.50;99.90
2465;DHT22;1244;54.326;10.074;2023-04-12T05:23:28;4.60;99.90
2465;DHT22;1244;54.326;10.074;2023-04-12T05:25:53;4.60;99.90
2465;DHT22;1244;54.326;10.074;2023-04-12T05:28:19;4.60;99.90
2465;DHT22;1244;54.326;10.074;2023-04-12T05:30:45;4.60;99.90
2465;DHT22;1244;54.326;10.074;2023-04-12T05:33:10;4.60;99.90
2465;DHT22;1244;54.326;10.074;2023-04-12T05:35:36;4.60;99.90
2465;DHT22;1244;54.326;10.074;2023-04-12T05:38:02;4.70;99.90
2465;DHT22;1244;54.326;10.074;2023-04-12T05:40:28;4.70;99.90
2465;DHT22;1244;54.326;10.074;2023-04-12T05:42:56;4.80;99.90
2465;DHT22;1244;54.326;10.074;2023-04-12T05:45:22;4.80;99.90
2465;DHT22;1244;54.326;10.074;2023-04-12T05:47:48;4.80;99.90
2465;DHT22;1244;54.326;10.074;2023-04-12T05:50:13;4.90;99.90
2465;DHT22;1244;54.326;10.074;2023-04-12T05:52:39;5.00;99.90
2465;DHT22;1244;54.326;10.074;2023-04-12T05:55:05;5.00;99.90
2465;DHT22;1244;54.326;10.074;2023-04-12T05:57:35;5.10;99.90
2465;DHT22;1244;54.326;10.074;2023-04-12T06:00:05;5.10;99.90
2465;DHT22;1244;54.326;10.074;2023-04-12T06:02:50;5.20;99.90
2465;DHT22;1244;54.326;10.074;2023-04-12T06:05:16;5.40;99.90
2465;DHT22;1244;54.326;10.074;2023-04-12T06:07:42;5.50;99.90
2465;DHT22;1244;54.326;10.074;2023-04-12T06:10:12;5.50;99.90
2465;DHT22;1244;54.326;10.074;2023-04-12T06:12:37;5.70;99.90
2465;DHT22;1244;54.326;10.074;2023-04-12T06:15:03;5.80;99.90
2465;DHT22;1244;54.326;10.074;2023-04-12T06:17:29;6.00;99.90
2465;DHT22;1244;54.326;10.074;2023-04-12T06:19:55;6.00;99.90
2465;DHT22;1244;54.326;10.074;2023-04-12T06:22:20;6.20;99.90
2465;DHT22;1244;54.326;10.074;2023-04-12T06:24:46;6.30;99.90
2465;DHT22;1244;54.326;10.074;2023-04-12T06:27:11;6.40;99.90
2465;DHT22;1244;54.326;10.074;2023-04-12T06:29:37;6.40;99.90
2465;DHT22;1244;54.326;10.074;2023-04-12T06:32:03;6.50;99.90
2465;DHT22;1244;54.326;10.074;2023-04-12T06:34:28;6.70;99.90
2465;DHT22;1244;54.326;10.074;2023-04-12T06:36:54;6.80;99.90
2465;DHT22;1244;54.326;10.074;2023-04-12T06:39:19;7.10;99.90
2465;DHT22;1244;54.326;10.074;2023-04-12T06:41:45;7.10;99.90
2465;DHT22;1244;54.326;10.074;2023-04-12T06:44:15;7.20;99.90
2465;DHT22;1244;54.326;10.074;2023-04-12T06:46:41;7.20;99.90
2465;DHT22;1244;54.326;10.074;2023-04-12T06:49:06;7.20;99.90
2465;DHT22;1244;54.326;10.074;2023-04-12T06:51:32;7.20;99.90
2465;DHT22;1244;54.326;10.074;2023-04-12T06:53:59;7.30;99.90
2465;DHT22;1244;54.326;10.074;2023-04-12T06:56:25;7.30;99.90
2465;DHT22;1244;54.326;10.074;2023-04-12T06:58:50;7.40;99.90
2465;DHT22;1244;54.326;10.074;2023-04-12T07:01:16;7.50;99.90
2465;DHT22;1244;54.326;10.074;2023-04-12T07:03:42;7.60;99.90
2465;DHT22;1244;54.326;10.074;2023-04-12T07:06:07;7.80;99.90
2465;DHT22;1244;54.326;10.074;2023-04-12T07:08:34;7.80;99.90
2465;DHT22;1244;54.326;10.074;2023-04-12T07:11:00;7.80;99.90
2465;DHT22;1244;54.326;10.074;2023-04-12T07:13:26;7.90;99.90
2465;DHT22;1244;54.326;10.074;2023-04-12T07:15:52;7.80;99.90
2465;DHT22;1244;54.326;10.074;2023-04-12T07:18:19;7.70;99.90
2465;DHT22;1244;54.326;10.074;2023-04-12T07:20:48;7.80;99.90
2465;DHT22;1244;54.326;10.074;2023-04-12T07:23:17;8.00;99.90
2465;DHT22;1244;54.326;10.074;2023-04-12T07:25:42;8.20;99.90
2465;DHT22;1244;54.326;10.074;2023-04-12T07:28:08;8.40;99.90
2465;DHT22;1244;54.326;10.074;2023-04-12T07:30:33;8.60;99.90
2465;DHT22;1244;54.326;10.074;2023-04-12T07:32:59;8.80;99.90
2465;DHT22;1244;54.326;10.074;2023-04-12T07:35:29;8.90;99.90
2465;DHT22;1244;54.326;10.074;2023-04-12T07:37:55;9.00;99.90
2465;DHT22;1244;54.326;10.074;2023-04-12T07:40:20;9.20;99.90
2465;DHT22;1244;54.326;10.074;2023-04-12T07:42:46;9.10;99.90
2465;DHT22;1244;54.326;10.074;2023-04-12T07:45:11;9.20;99.90
2465;DHT22;1244;54.326;10.074;2023-04-12T07:47:37;9.30;99.90
2465;DHT22;1244;54.326;10.074;2023-04-12T07:50:03;9.20;99.90
2465;DHT22;1244;54.326;10.074;2023-04-12T07:52:28;9.30;99.90
2465;DHT22;1244;54.326;10.074;2023-04-12T07:54:54;9.30;99.90
2465;DHT22;1244;54.326;10.074;2023-04-12T07:57:19;9.40;99.90
2465;DHT22;1244;54.326;10.074;2023-04-12T07:59:46;9.50;99.90
2465;DHT22;1244;54.326;10.074;2023-04-12T08:02:11;9.70;99.90
2465;DHT22;1244;54.326;10.074;2023-04-12T08:07:05;9.60;99.90
2465;DHT22;1244;54.326;10.074;2023-04-12T08:09:30;9.80;99.90
2465;DHT22;1244;54.326;10.074;2023-04-12T08:12:02;9.80;99.90
2465;DHT22;1244;54.326;10.074;2023-04-12T08:14:29;10.00;99.90
2465;DHT22;1244;54.326;10.074;2023-04-12T08:16:56;10.00;99.90
2465;DHT22;1244;54.326;10.074;2023-04-12T08:19:24;9.90;99.90
2465;DHT22;1244;54.326;10.074;2023-04-12T08:21:49;9.90;99.90
2465;DHT22;1244;54.326;10.074;2023-04-12T08:24:15;9.90;99.90
2465;DHT22;1244;54.326;10.074;2023-04-12T08:26:41;10.00;99.90
2465;DHT22;1244;54.326;10.074;2023-04-12T08:29:06;10.10;99.90
2465;DHT22;1244;54.326;10.074;2023-04-12T08:31:32;10.10;99.90
2465;DHT22;1244;54.326;10.074;2023-04-12T08:33:58;10.20;99.90
2465;DHT22;1244;54.326;10.074;2023-04-12T08:36:24;10.10;99.90
2465;DHT22;1244;54.326;10.074;2023-04-12T08:38:51;10.20;99.90
2465;DHT22;1244;54.326;10.074;2023-04-12T08:41:20;10.10;99.90
2465;DHT22;1244;54.326;10.074;2023-04-12T08:43:46;10.10;99.90
2465;DHT22;1244;54.326;10.074;2023-04-12T08:46:14;10.10;99.90
2465;DHT22;1244;54.326;10.074;2023-04-12T08:48:44;10.20;99.90
2465;DHT22;1244;54.326;10.074;2023-04-12T08:51:13;10.20;99.90
2465;DHT22;1244;54.326;10.074;2023-04-12T08:53:39;10.10;99.90
2465;DHT22;1244;54.326;10.074;2023-04-12T08:56:08;10.20;99.90
2465;DHT22;1244;54.326;10.074;2023-04-12T08:58:45;10.30;99.90
2465;DHT22;1244;54.326;10.074;2023-04-12T09:01:18;10.20;99.90
2465;DHT22;1244;54.326;10.074;2023-04-12T09:03:45;10.20;99.90
2465;DHT22;1244;54.326;10.074;2023-04-12T09:06:11;10.30;99.90
2465;DHT22;1244;54.326;10.074;2023-04-12T09:08:50;10.40;99.90
2465;DHT22;1244;54.326;10.074;2023-04-12T09:11:23;10.30;99.90
2465;DHT22;1244;54.326;10.074;2023-04-12T09:13:49;10.30;99.90
2465;DHT22;1244;54.326;10.074;2023-04-12T09:16:15;10.20;99.90
2465;DHT22;1244;54.326;10.074;2023-04-12T09:18:48;10.30;99.90
2465;DHT22;1244;54.326;10.074;2023-04-12T09:21:14;10.20;99.90
2465;DHT22;1244;54.326;10.074;2023-04-12T09:23:40;10.20;99.90
2465;DHT22;1244;54.326;10.074;2023-04-12T09:26:05;10.20;99.90
2465;DHT22;1244;54.326;10.074;2023-04-12T09:28:32;10.20;99.90
2465;DHT22;1244;54.326;10.074;2023-04-12T09:30:58;10.30;99.90
2465;DHT22;1244;54.326;10.074;2023-04-12T09:33:38;10.30;99.90
2465;DHT22;1244;54.326;10.074;2023-04-12T09:36:05;10.30;99.90
2465;DHT22;1244;54.326;10.074;2023-04-12T09:38:33;10.30;99.90
2465;DHT22;1244;54.326;10.074;2023-04-12T09:41:18;10.30;99.90
2465;DHT22;1244;54.326;10.074;2023-04-12T09:43:44;10.30;99.90
2465;DHT22;1244;54.326;10.074;2023-04-12T09:46:11;10.40;99.90
2465;DHT22;1244;54.326;10.074;2023-04-12T09:48:40;10.40;99.90
2465;DHT22;1244;54.326;10.074;2023-04-12T09:51:07;10.40;99.90
2465;DHT22;1244;54.326;10.074;2023-04-12T09:53:37;10.50;99.90
2465;DHT22;1244;54.326;10.074;2023-04-12T09:56:06;10.30;99.90
2465;DHT22;1244;54.326;10.074;2023-04-12T09:58:35;10.30;99.90
2465;DHT22;1244;54.326;10.074;2023-04-12T10:01:04;10.30;99.90
2465;DHT22;1244;54.326;10.074;2023-04-12T10:03:32;10.30;99.90
2465;DHT22;1244;54.326;10.074;2023-04-12T10:05:58;10.30;99.90
2465;DHT22;1244;54.326;10.074;2023-04-12T10:08:24;10.30;99.90
2465;DHT22;1244;54.326;10.074;2023-04-12T10:10:52;10.30;99.90
2465;DHT22;1244;54.326;10.074;2023-04-12T10:13:18;10.30;99.90
2465;DHT22;1244;54.326;10.074;2023-04-12T10:15:46;10.30;99.90
2465;DHT22;1244;54.326;10.074;2023-04-12T10:18:15;10.40;99.90
2465;DHT22;1244;54.326;10.074;2023-04-12T10:20:42;10.30;99.90
2465;DHT22;1244;54.326;10.074;2023-04-12T10:23:08;10.40;99.90
2465;DHT22;1244;54.326;10.074;2023-04-12T10:25:37;10.50;99.90
2465;DHT22;1244;54.326;10.074;2023-04-12T10:28:17;10.80;99.90
2465;DHT22;1244;54.326;10.074;2023-04-12T10:30:43;10.80;99.90
2465;DHT22;1244;54.326;10.074;2023-04-12T10:33:11;10.90;99.90
2465;DHT22;1244;54.326;10.074;2023-04-12T10:38:13;10.90;99.90
2465;DHT22;1244;54.326;10.074;2023-04-12T10:43:50;11.10;99.90
2465;DHT22;1244;54.326;10.074;2023-04-12T10:49:13;11.00;99.90
2465;DHT22;1244;54.326;10.074;2023-04-12T10:51:39;11.00;99.90
2465;DHT22;1244;54.326;10.074;2023-04-12T10:56:38;11.20;99.90
2465;DHT22;1244;54.326;10.074;2023-04-12T10:59:05;11.20;99.90
2465;DHT22;1244;54.326;10.074;2023-04-12T11:01:31;11.20;99.90
2465;DHT22;1244;54.326;10.074;2023-04-12T11:04:10;11.20;99.90
2465;DHT22;1244;54.326;10.074;2023-04-12T11:09:05;11.20;99.90
2465;DHT22;1244;54.326;10.074;2023-04-12T11:11:33;11.10;99.90
2465;DHT22;1244;54.326;10.074;2023-04-12T11:14:00;10.90;99.90
2465;DHT22;1244;54.326;10.074;2023-04-12T11:16:26;10.80;99.90
2465;DHT22;1244;54.326;10.074;2023-04-12T11:18:53;10.60;99.90
2465;DHT22;1244;54.326;10.074;2023-04-12T11:21:19;10.50;99.90
2465;DHT22;1244;54.326;10.074;2023-04-12T11:23:45;10.50;99.90
2465;DHT22;1244;54.326;10.074;2023-04-12T11:26:14;10.50;99.90
2465;DHT22;1244;54.326;10.074;2023-04-12T11:28:43;10.70;99.90
2465;DHT22;1244;54.326;10.074;2023-04-12T11:31:09;10.80;99.90
2465;DHT22;1244;54.326;10.074;2023-04-12T11:33:37;10.80;99.90
2465;DHT22;1244;54.326;10.074;2023-04-12T11:36:05;10.80;99.90
2465;DHT22;1244;54.326;10.074;2023-04-12T11:38:32;10.80;99.90
2465;DHT22;1244;54.326;10.074;2023-04-12T11:40:58;10.70;99.90
2465;DHT22;1244;54.326;10.074;2023-04-12T11:43:24;10.50;99.90
2465;DHT22;1244;54.326;10.074;2023-04-12T11:45:55;10.50;99.90
2465;DHT22;1244;54.326;10.074;2023-04-12T11:48:21;10.40;99.90
2465;DHT22;1244;54.326;10.074;2023-04-12T11:50:47;10.50;99.90
2465;DHT22;1244;54.326;10.074;2023-04-12T11:53:13;10.40;99.90
2465;DHT22;1244;54.326;10.074;2023-04-12T11:55:40;10.40;99.90
2465;DHT22;1244;54.326;10.074;2023-04-12T11:58:07;10.40;99.90
2465;DHT22;1244;54.326;10.074;2023-04-12T12:00:33;10.30;99.90
2465;DHT22;1244;54.326;10.074;2023-04-12T12:02:58;10.30;99.90
2465;DHT22;1244;54.326;10.074;2023-04-12T12:05:24;10.30;99.90
2465;DHT22;1244;54.326;10.074;2023-04-12T12:07:50;10.30;99.90
2465;DHT22;1244;54.326;10.074;2023-04-12T12:10:17;10.30;99.90
2465;DHT22;1244;54.326;10.074;2023-04-12T12:12:43;10.30;99.90
2465;DHT22;1244;54.326;10.074;2023-04-12T12:15:09;10.30;99.90
2465;DHT22;1244;54.326;10.074;2023-04-12T12:17:35;10.20;99.90
2465;DHT22;1244;54.326;10.074;2023-04-12T12:20:04;10.10;99.90
2465;DHT22;1244;54.326;10.074;2023-04-12T12:22:30;10.10;99.90
2465;DHT22;1244;54.326;10.074;2023-04-12T12:24:56;10.00;99.90
2465;DHT22;1244;54.326;10.074;2023-04-12T12:27:43;9.90;99.90
2465;DHT22;1244;54.326;10.074;2023-04-12T12:30:17;9.70;99.90
2465;DHT22;1244;54.326;10.074;2023-04-12T12:32:43;9.40;99.90
2465;DHT22;1244;54.326;10.074;2023-04-12T12:35:12;9.40;99.90
2465;DHT22;1244;54.326;10.074;2023-04-12T12:37:52;9.20;99.90
2465;DHT22;1244;54.326;10.074;2023-04-12T12:40:30;9.10;99.90
2465;DHT22;1244;54.326;10.074;2023-04-12T12:42:58;8.90;99.90
2465;DHT22;1244;54.326;10.074;2023-04-12T12:45:26;8.80;99.90
2465;DHT22;1244;54.326;10.074;2023-04-12T12:48:00;8.80;99.90
2465;DHT22;1244;54.326;10.074;2023-04-12T12:50:31;8.70;99.90
2465;DHT22;1244;54.326;10.074;2023-04-12T12:52:58;8.60;99.90
2465;DHT22;1244;54.326;10.074;2023-04-12T12:55:26;8.90;99.90
2465;DHT22;1244;54.326;10.074;2023-04-12T12:57:53;8.40;99.90
2465;DHT22;1244;54.326;10.074;2023-04-12T13:00:22;8.50;99.90
2465;DHT22;1244;54.326;10.074;2023-04-12T13:02:48;8.50;99.90
2465;DHT22;1244;54.326;10.074;2023-04-12T13:05:15;8.40;99.90
2465;DHT22;1244;54.326;10.074;2023-04-12T13:07:40;8.50;99.90
2465;DHT22;1244;54.326;10.074;2023-04-12T13:10:07;8.30;99.90
2465;DHT22;1244;54.326;10.074;2023-04-12T13:12:33;8.30;99.90
2465;DHT22;1244;54.326;10.074;2023-04-12T13:14:59;8.20;99.90
2465;DHT22;1244;54.326;10.074;2023-04-12T13:17:28;8.00;99.90
2465;DHT22;1244;54.326;10.074;2023-04-12T13:19:54;7.90;99.90
2465;DHT22;1244;54.326;10.074;2023-04-12T13:22:20;8.00;99.90
2465;DHT22;1244;54.326;10.074;2023-04-12T13:24:45;8.00;99.90
2465;DHT22;1244;54.326;10.074;2023-04-12T13:27:12;7.80;99.90
2465;DHT22;1244;54.326;10.074;2023-04-12T13:29:37;8.00;99.90
2465;DHT22;1244;54.326;10.074;2023-04-12T13:32:03;7.90;99.90
2465;DHT22;1244;54.326;10.074;2023-04-12T13:34:30;8.00;99.90
2465;DHT22;1244;54.326;10.074;2023-04-12T13:36:55;7.80;99.90
2465;DHT22;1244;54.326;10.074;2023-04-12T13:39:21;7.90;99.90
2465;DHT22;1244;54.326;10.074;2023-04-12T13:41:47;8.10;99.90
2465;DHT22;1244;54.326;10.074;2023-04-12T13:44:12;7.80;99.90
2465;DHT22;1244;54.326;10.074;2023-04-12T13:46:38;7.90;99.90
2465;DHT22;1244;54.326;10.074;2023-04-12T13:49:03;8.00;99.90
2465;DHT22;1244;54.326;10.074;2023-04-12T13:51:29;8.10;99.90
2465;DHT22;1244;54.326;10.074;2023-04-12T13:53:55;8.00;99.90
2465;DHT22;1244;54.326;10.074;2023-04-12T13:56:20;8.10;99.90
2465;DHT22;1244;54.326;10.074;2023-04-12T13:58:46;8.10;99.90
2465;DHT22;1244;54.326;10.074;2023-04-12T14:01:12;8.30;99.90
2465;DHT22;1244;54.326;10.074;2023-04-12T14:03:38;7.90;99.90
2465;DHT22;1244;54.326;10.074;2023-04-12T14:06:05;8.00;99.90
2465;DHT22;1244;54.326;10.074;2023-04-12T14:08:31;8.00;99.90
2465;DHT22;1244;54.326;10.074;2023-04-12T14:10:57;8.00;99.90
2465;DHT22;1244;54.326;10.074;2023-04-12T14:13:23;8.10;99.90
2465;DHT22;1244;54.326;10.074;2023-04-12T14:15:49;8.00;99.90
2465;DHT22;1244;54.326;10.074;2023-04-12T14:18:16;8.00;99.90
2465;DHT22;1244;54.326;10.074;2023-04-12T14:20:41;7.90;99.90
2465;DHT22;1244;54.326;10.074;2023-04-12T14:23:08;8.10;99.90
2465;DHT22;1244;54.326;10.074;2023-04-12T14:25:36;8.10;99.90
2465;DHT22;1244;54.326;10.074;2023-04-12T14:28:01;7.90;99.90
2465;DHT22;1244;54.326;10.074;2023-04-12T14:30:27;8.00;99.90
2465;DHT22;1244;54.326;10.074;2023-04-12T14:32:53;8.00;99.90
2465;DHT22;1244;54.326;10.074;2023-04-12T14:35:18;7.90;99.90
2465;DHT22;1244;54.326;10.074;2023-04-12T14:37:44;8.20;99.90
2465;DHT22;1244;54.326;10.074;2023-04-12T14:40:09;8.00;99.90
2465;DHT22;1244;54.326;10.074;2023-04-12T14:42:35;8.20;99.90
2465;DHT22;1244;54.326;10.074;2023-04-12T14:45:01;8.00;99.90
2465;DHT22;1244;54.326;10.074;2023-04-12T14:47:29;8.00;99.90
2465;DHT22;1244;54.326;10.074;2023-04-12T14:49:55;8.00;99.90
2465;DHT22;1244;54.326;10.074;2023-04-12T14:52:20;7.80;99.90
2465;DHT22;1244;54.326;10.074;2023-04-12T14:54:46;8.00;99.90
2465;DHT22;1244;54.326;10.074;2023-04-12T14:57:11;7.90;99.90
2465;DHT22;1244;54.326;10.074;2023-04-12T14:59:37;7.90;99.90
2465;DHT22;1244;54.326;10.074;2023-04-12T15:02:02;8.00;99.90
2465;DHT22;1244;54.326;10.074;2023-04-12T15:04:28;8.00;99.90
2465;DHT22;1244;54.326;10.074;2023-04-12T15:06:54;8.00;99.90
2465;DHT22;1244;54.326;10.074;2023-04-12T15:09:19;7.90;99.90
2465;DHT22;1244;54.326;10.074;2023-04-12T15:11:48;8.00;99.90
2465;DHT22;1244;54.326;10.074;2023-04-12T15:14:14;8.00;99.90
2465;DHT22;1244;54.326;10.074;2023-04-12T15:16:45;8.10;99.90
2465;DHT22;1244;54.326;10.074;2023-04-12T15:19:13;8.30;99.90
2465;DHT22;1244;54.326;10.074;2023-04-12T15:21:39;8.00;99.90
2465;DHT22;1244;54.326;10.074;2023-04-12T15:24:04;8.20;99.90
2465;DHT22;1244;54.326;10.074;2023-04-12T15:26:30;8.00;99.90
2465;DHT22;1244;54.326;10.074;2023-04-12T15:28:56;8.10;99.90
2465;DHT22;1244;54.326;10.074;2023-04-12T15:31:21;8.20;99.90
2465;DHT22;1244;54.326;10.074;2023-04-12T15:33:47;8.10;99.90
2465;DHT22;1244;54.326;10.074;2023-04-12T15:36:15;8.10;99.90
2465;DHT22;1244;54.326;10.074;2023-04-12T15:38:41;8.10;99.90
2465;DHT22;1244;54.326;10.074;2023-04-12T15:41:07;8.10;99.90
2465;DHT22;1244;54.326;10.074;2023-04-12T15:43:33;8.20;99.90
2465;DHT22;1244;54.326;10.074;2023-04-12T15:45:59;8.10;99.90
2465;DHT22;1244;54.326;10.074;2023-04-12T15:48:25;8.20;99.90
2465;DHT22;1244;54.326;10.074;2023-04-12T15:50:53;7.90;99.90
2465;DHT22;1244;54.326;10.074;2023-04-12T15:53:24;8.30;99.90
2465;DHT22;1244;54.326;10.074;2023-04-12T15:55:50;8.00;99.90
2465;DHT22;1244;54.326;10.074;2023-04-12T15:58:23;8.10;99.90
2465;DHT22;1244;54.326;10.074;2023-04-12T16:00:51;8.00;99.90
2465;DHT22;1244;54.326;10.074;2023-04-12T16:03:20;8.10;99.90
2465;DHT22;1244;54.326;10.074;2023-04-12T16:05:50;8.10;99.90
2465;DHT22;1244;54.326;10.074;2023-04-12T16:08:19;8.10;99.90
2465;DHT22;1244;54.326;10.074;2023-04-12T16:10:45;8.10;99.90
2465;DHT22;1244;54.326;10.074;2023-04-12T16:13:10;8.10;99.90
2465;DHT22;1244;54.326;10.074;2023-04-12T16:15:36;8.00;99.90
2465;DHT22;1244;54.326;10.074;2023-04-12T16:18:02;8.00;99.90
2465;DHT22;1244;54.326;10.074;2023-04-12T16:20:27;8.10;99.90
2465;DHT22;1244;54.326;10.074;2023-04-12T16:22:53;8.10;99.90
2465;DHT22;1244;54.326;10.074;2023-04-12T16:25:22;8.10;99.90
2465;DHT22;1244;54.326;10.074;2023-04-12T16:27:48;8.10;99.90
2465;DHT22;1244;54.326;10.074;2023-04-12T16:30:15;8.10;99.90
2465;DHT22;1244;54.326;10.074;2023-04-12T16:32:44;8.10;99.90